createdAt,value
2023-03-06T00:00:46.957Z,0.00
2023-03-06T00:01:47.141Z,0.00
2023-03-06T00:02:46.958Z,0.00
2023-03-06T00:03:47.127Z,0.00
2023-03-06T00:04:46.917Z,0.00
2023-03-06T00:05:46.999Z,0.00
2023-03-06T00:06:46.881Z,0.00
2023-03-06T00:07:46.991Z,0.00
2023-03-06T00:08:46.896Z,0.00
2023-03-06T00:09:47.085Z,0.00
2023-03-06T00:10:46.848Z,0.00
2023-03-06T00:11:46.900Z,0.00
2023-03-06T00:12:46.818Z,0.00
2023-03-06T00:13:46.953Z,0.00
2023-03-06T00:14:46.800Z,0.00
2023-03-06T00:15:46.947Z,0.00
2023-03-06T00:16:46.748Z,0.00
2023-03-06T00:17:46.850Z,0.00
2023-03-06T00:18:46.827Z,0.00
2023-03-06T00:19:46.816Z,0.00
2023-03-06T00:20:46.860Z,0.00
2023-03-06T00:21:46.728Z,0.00
2023-03-06T00:22:46.859Z,0.00
2023-03-06T00:23:46.679Z,0.00
2023-03-06T00:24:46.786Z,0.00
2023-03-06T00:25:46.695Z,0.00
2023-03-06T00:26:46.786Z,0.00
2023-03-06T00:27:46.636Z,0.00
2023-03-06T00:28:46.808Z,0.00
2023-03-06T00:30:45.303Z,0.00
2023-03-06T00:31:45.964Z,0.00
2023-03-06T00:32:46.050Z,0.00
2023-03-06T00:33:45.883Z,0.00
2023-03-06T00:34:45.821Z,0.00
2023-03-06T00:35:45.975Z,0.00
2023-03-06T00:36:45.831Z,0.00
2023-03-06T00:37:45.942Z,0.00
2023-03-06T00:38:45.771Z,0.00
2023-03-06T00:39:45.970Z,0.00
2023-03-06T00:40:45.752Z,0.00
2023-03-06T00:41:47.042Z,0.00
2023-03-06T00:42:45.720Z,0.00
2023-03-06T00:43:45.872Z,0.00
2023-03-06T00:44:45.707Z,0.00
2023-03-06T00:45:45.961Z,0.00
2023-03-06T00:46:45.700Z,0.00
2023-03-06T00:47:45.718Z,0.00
2023-03-06T00:48:45.681Z,0.00
2023-03-06T00:49:45.722Z,0.00
2023-03-06T00:50:45.626Z,0.00
2023-03-06T00:51:47.232Z,0.00
2023-03-06T00:52:45.593Z,0.00
2023-03-06T00:53:45.774Z,0.00
2023-03-06T00:54:45.571Z,0.00
2023-03-06T00:55:45.662Z,0.00
2023-03-06T00:56:45.548Z,0.00
2023-03-06T00:57:45.584Z,0.00
2023-03-06T00:58:45.526Z,0.00
2023-03-06T00:59:45.614Z,0.00
2023-03-06T01:00:45.536Z,0.00
2023-03-06T01:01:45.644Z,0.00
2023-03-06T01:02:45.472Z,0.00
2023-03-06T01:03:45.609Z,0.00
2023-03-06T01:04:45.699Z,0.00
2023-03-06T01:05:45.414Z,0.00
2023-03-06T01:06:45.543Z,0.00
2023-03-06T01:07:45.385Z,0.00
2023-03-06T01:08:45.454Z,0.00
2023-03-06T01:09:45.372Z,0.00
2023-03-06T01:10:45.473Z,0.00
2023-03-06T01:11:45.319Z,0.00
2023-03-06T01:12:45.485Z,0.00
2023-03-06T01:13:45.341Z,0.00
2023-03-06T01:14:45.443Z,0.00
2023-03-06T01:15:45.269Z,0.00
2023-03-06T01:16:45.326Z,0.00
2023-03-06T01:17:45.250Z,0.00
2023-03-06T01:18:45.324Z,0.00
2023-03-06T01:19:45.263Z,0.00
2023-03-06T01:20:45.329Z,0.00
2023-03-06T01:21:45.200Z,0.00
2023-03-06T01:22:45.340Z,0.00
2023-03-06T01:23:45.163Z,0.00
2023-03-06T01:24:45.302Z,0.00
2023-03-06T01:25:45.152Z,0.00
2023-03-06T01:26:45.276Z,0.00
2023-03-06T01:27:45.151Z,0.00
2023-03-06T01:28:45.192Z,0.00
2023-03-06T01:29:45.092Z,0.00
2023-03-06T01:30:45.241Z,0.00
2023-03-06T01:31:45.101Z,0.00
2023-03-06T01:32:45.200Z,0.00
2023-03-06T01:33:45.044Z,0.00
2023-03-06T01:34:45.116Z,0.00
2023-03-06T01:35:45.156Z,0.00
2023-03-06T01:36:45.053Z,0.00
2023-03-06T01:37:45.136Z,0.00
2023-03-06T01:38:45.004Z,0.00
2023-03-06T01:39:45.061Z,0.00
2023-03-06T01:40:45.120Z,0.00
2023-03-06T01:41:44.995Z,0.00
2023-03-06T01:42:46.799Z,0.00
2023-03-06T01:43:44.940Z,0.00
2023-03-06T01:44:45.096Z,0.00
2023-03-06T01:45:44.910Z,0.00
2023-03-06T01:46:45.113Z,0.00
2023-03-06T01:47:44.903Z,0.00
2023-03-06T01:48:44.912Z,0.00
2023-03-06T01:49:44.852Z,0.00
2023-03-06T01:50:44.939Z,0.00
2023-03-06T01:51:44.819Z,0.00
2023-03-06T01:52:45.182Z,0.00
2023-03-06T01:53:44.799Z,0.00
2023-03-06T01:54:44.915Z,0.00
2023-03-06T01:55:44.762Z,0.00
2023-03-06T01:56:44.889Z,0.00
2023-03-06T01:57:44.748Z,0.00
2023-03-06T01:58:44.952Z,0.00
2023-03-06T01:59:44.709Z,0.00
2023-03-06T02:00:44.898Z,0.00
2023-03-06T02:01:44.888Z,0.00
2023-03-06T02:02:44.722Z,0.00
2023-03-06T02:03:44.732Z,0.00
2023-03-06T02:04:44.696Z,0.00
2023-03-06T02:05:44.733Z,0.00
2023-03-06T02:06:44.733Z,0.00
2023-03-06T02:07:44.619Z,0.00
2023-03-06T02:08:44.812Z,0.00
2023-03-06T02:09:44.590Z,0.00
2023-03-06T02:10:44.804Z,0.00
2023-03-06T02:11:44.765Z,0.00
2023-03-06T02:12:44.578Z,0.00
2023-03-06T02:13:44.680Z,0.00
2023-03-06T02:14:49.261Z,0.00
2023-03-06T02:15:44.626Z,0.00
2023-03-06T02:16:44.589Z,0.00
2023-03-06T02:17:44.629Z,0.00
2023-03-06T02:18:44.501Z,0.00
2023-03-06T02:19:44.508Z,0.00
2023-03-06T02:20:44.489Z,0.00
2023-03-06T02:21:44.536Z,0.00
2023-03-06T02:22:44.495Z,0.00
2023-03-06T02:23:44.561Z,0.00
2023-03-06T02:24:44.474Z,0.00
2023-03-06T02:25:44.535Z,0.00
2023-03-06T02:26:44.409Z,0.00
2023-03-06T02:27:44.472Z,0.00
2023-03-06T02:28:44.383Z,0.00
2023-03-06T02:29:44.471Z,0.00
2023-03-06T02:30:44.382Z,0.00
2023-03-06T02:31:44.561Z,0.00
2023-03-06T02:32:44.564Z,0.00
2023-03-06T02:33:44.301Z,0.00
2023-03-06T02:34:44.486Z,0.00
2023-03-06T02:35:44.392Z,0.00
2023-03-06T02:36:44.335Z,0.00
2023-03-06T02:37:44.381Z,0.00
2023-03-06T02:38:44.260Z,0.00
2023-03-06T02:39:44.363Z,0.00
2023-03-06T02:40:44.236Z,0.00
2023-03-06T02:41:44.266Z,0.00
2023-03-06T02:42:44.331Z,0.00
2023-03-06T02:43:44.185Z,0.00
2023-03-06T02:44:44.347Z,0.00
2023-03-06T02:45:44.331Z,0.00
2023-03-06T02:46:44.308Z,0.00
2023-03-06T02:47:44.105Z,0.00
2023-03-06T02:48:44.322Z,0.00
2023-03-06T02:49:44.088Z,0.00
2023-03-06T02:50:44.181Z,0.00
2023-03-06T02:51:44.058Z,0.00
2023-03-06T02:52:44.282Z,0.00
2023-03-06T02:53:44.047Z,0.00
2023-03-06T02:54:44.244Z,0.00
2023-03-06T02:55:44.008Z,0.00
2023-03-06T02:56:44.062Z,0.00
2023-03-06T02:57:44.005Z,0.00
2023-03-06T02:58:44.126Z,0.00
2023-03-06T02:59:43.961Z,0.00
2023-03-06T03:00:44.062Z,0.00
2023-03-06T03:01:43.993Z,0.00
2023-03-06T03:02:44.039Z,0.00
2023-03-06T03:03:43.993Z,0.00
2023-03-06T03:04:43.954Z,0.00
2023-03-06T03:05:44.065Z,0.00
2023-03-06T03:06:43.904Z,0.00
2023-03-06T03:07:43.949Z,0.00
2023-03-06T03:08:43.876Z,0.00
2023-03-06T03:09:43.923Z,0.00
2023-03-06T03:10:43.926Z,0.00
2023-03-06T03:11:43.982Z,0.00
2023-03-06T03:12:43.821Z,0.00
2023-03-06T03:13:43.986Z,0.00
2023-03-06T03:14:43.776Z,0.00
2023-03-06T03:15:44.016Z,0.00
2023-03-06T03:16:43.752Z,0.00
2023-03-06T03:17:43.845Z,0.00
2023-03-06T03:18:43.733Z,0.00
2023-03-06T03:19:43.818Z,0.00
2023-03-06T03:20:43.788Z,0.00
2023-03-06T03:21:43.828Z,0.00
2023-03-06T03:22:43.701Z,0.00
2023-03-06T03:23:43.740Z,0.00
2023-03-06T03:24:43.796Z,0.00
2023-03-06T03:25:43.777Z,0.00
2023-03-06T03:26:43.647Z,0.00
2023-03-06T03:27:43.764Z,0.00
2023-03-06T03:28:43.611Z,0.00
2023-03-06T03:29:43.723Z,0.00
2023-03-06T03:30:43.600Z,0.00
2023-03-06T03:31:43.699Z,0.00
2023-03-06T03:32:43.551Z,0.00
2023-03-06T03:33:43.771Z,0.00
2023-03-06T03:34:43.721Z,0.00
2023-03-06T03:35:43.576Z,0.00
2023-03-06T03:36:43.716Z,0.00
2023-03-06T03:37:43.506Z,0.00
2023-03-06T03:38:43.559Z,0.00
2023-03-06T03:39:43.553Z,0.00
2023-03-06T03:40:43.456Z,0.00
2023-03-06T03:41:43.596Z,0.00
2023-03-06T03:42:43.421Z,0.00
2023-03-06T03:43:43.624Z,0.00
2023-03-06T03:44:43.440Z,0.00
2023-03-06T03:45:43.431Z,0.00
2023-03-06T03:46:43.605Z,0.00
2023-03-06T03:47:43.397Z,0.00
2023-03-06T03:48:43.394Z,0.00
2023-03-06T03:49:43.374Z,0.00
2023-03-06T03:50:43.441Z,0.00
2023-03-06T03:51:43.328Z,0.00
2023-03-06T03:52:43.418Z,0.00
2023-03-06T03:53:43.321Z,0.00
2023-03-06T03:54:43.325Z,0.00
2023-03-06T03:55:43.322Z,0.00
2023-03-06T03:56:43.350Z,0.00
2023-03-06T03:57:43.268Z,0.00
2023-03-06T03:58:43.258Z,0.00
2023-03-06T03:59:43.237Z,0.00
2023-03-06T04:00:43.306Z,0.00
2023-03-06T04:01:43.234Z,0.00
2023-03-06T04:02:43.223Z,0.00
2023-03-06T04:03:43.183Z,0.00
2023-03-06T04:04:43.237Z,0.00
2023-03-06T04:05:43.213Z,0.00
2023-03-06T04:06:43.142Z,0.00
2023-03-06T04:07:43.359Z,0.00
2023-03-06T04:08:43.094Z,0.00
2023-03-06T04:09:43.145Z,0.00
2023-03-06T04:10:43.143Z,0.00
2023-03-06T04:11:43.105Z,0.00
2023-03-06T04:12:43.245Z,0.00
2023-03-06T04:13:43.069Z,0.00
2023-03-06T04:14:43.075Z,0.00
2023-03-06T04:15:43.147Z,0.00
2023-03-06T04:16:43.007Z,0.00
2023-03-06T04:17:43.092Z,0.00
2023-03-06T04:18:42.967Z,0.00
2023-03-06T04:19:43.121Z,0.00
2023-03-06T04:20:42.976Z,0.00
2023-03-06T04:21:43.140Z,0.00
2023-03-06T04:22:42.916Z,0.00
2023-03-06T04:23:43.152Z,0.00
2023-03-06T04:24:42.938Z,0.00
2023-03-06T04:25:42.980Z,0.00
2023-03-06T04:26:42.886Z,0.00
2023-03-06T04:27:43.003Z,0.00
2023-03-06T04:28:42.838Z,0.00
2023-03-06T04:29:42.976Z,0.00
2023-03-06T04:30:42.821Z,0.00
2023-03-06T04:31:43.076Z,0.00
2023-03-06T04:32:42.954Z,0.00
2023-03-06T04:33:43.018Z,0.00
2023-03-06T04:34:42.775Z,0.00
2023-03-06T04:35:42.862Z,0.00
2023-03-06T04:36:42.818Z,0.00
2023-03-06T04:37:42.748Z,0.00
2023-03-06T04:38:42.902Z,0.00
2023-03-06T04:39:42.755Z,0.00
2023-03-06T04:40:44.842Z,0.00
2023-03-06T04:41:42.749Z,0.00
2023-03-06T04:42:42.671Z,0.00
2023-03-06T04:43:42.768Z,0.00
2023-03-06T04:44:42.691Z,0.00
2023-03-06T04:45:42.824Z,0.00
2023-03-06T04:46:42.606Z,0.00
2023-03-06T04:47:42.793Z,0.00
2023-03-06T04:48:42.588Z,0.00
2023-03-06T04:49:42.652Z,0.00
2023-03-06T04:50:42.546Z,0.00
2023-03-06T04:51:42.632Z,0.00
2023-03-06T04:52:42.557Z,0.00
2023-03-06T04:53:42.642Z,0.00
2023-03-06T04:54:42.520Z,0.00
2023-03-06T04:55:42.699Z,0.00
2023-03-06T04:56:42.496Z,0.00
2023-03-06T04:57:42.671Z,0.00
2023-03-06T04:58:42.459Z,0.00
2023-03-06T04:59:42.573Z,0.00
2023-03-06T05:00:42.480Z,0.00
2023-03-06T05:01:42.594Z,0.00
2023-03-06T05:02:42.490Z,0.00
2023-03-06T05:03:42.433Z,0.00
2023-03-06T05:04:42.501Z,0.00
2023-03-06T05:05:42.395Z,0.00
2023-03-06T05:06:42.584Z,0.00
2023-03-06T05:07:42.482Z,0.00
2023-03-06T05:08:42.355Z,0.00
2023-03-06T05:09:42.437Z,0.00
2023-03-06T05:10:42.291Z,0.00
2023-03-06T05:11:42.347Z,0.00
2023-03-06T05:12:42.318Z,0.00
2023-03-06T05:13:42.363Z,0.00
2023-03-06T05:14:42.278Z,0.00
2023-03-06T05:15:42.395Z,0.00
2023-03-06T05:16:42.304Z,0.00
2023-03-06T05:17:42.325Z,0.00
2023-03-06T05:18:42.211Z,0.00
2023-03-06T05:19:42.318Z,0.00
2023-03-06T05:20:42.233Z,0.00
2023-03-06T05:21:42.311Z,0.00
2023-03-06T05:22:42.173Z,0.00
2023-03-06T05:23:42.340Z,0.00
2023-03-06T05:24:42.144Z,0.00
2023-03-06T05:25:42.273Z,0.00
2023-03-06T05:26:42.149Z,0.00
2023-03-06T05:27:42.159Z,0.00
2023-03-06T05:28:42.110Z,0.00
2023-03-06T05:29:42.221Z,0.00
2023-03-06T05:30:42.065Z,0.00
2023-03-06T05:31:42.219Z,0.00
2023-03-06T05:32:42.077Z,0.00
2023-03-06T05:33:42.218Z,0.00
2023-03-06T05:34:42.030Z,0.00
2023-03-06T05:35:42.258Z,0.00
2023-03-06T05:36:41.982Z,0.00
2023-03-06T05:37:42.130Z,0.00
2023-03-06T05:38:41.960Z,4.00
2023-03-06T05:39:42.097Z,4.00
2023-03-06T05:40:41.929Z,4.00
2023-03-06T05:41:42.046Z,4.00
2023-03-06T05:42:41.918Z,4.00
2023-03-06T05:43:42.073Z,4.00
2023-03-06T05:44:41.941Z,4.00
2023-03-06T05:45:42.018Z,4.00
2023-03-06T05:46:41.867Z,4.00
2023-03-06T05:47:41.999Z,4.00
2023-03-06T05:48:41.837Z,4.00
2023-03-06T05:49:42.109Z,4.00
2023-03-06T05:50:41.814Z,4.00
2023-03-06T05:51:42.021Z,4.00
2023-03-06T05:52:41.789Z,8.00
2023-03-06T05:53:41.836Z,8.00
2023-03-06T05:54:41.831Z,4.00
2023-03-06T05:55:41.814Z,8.00
2023-03-06T05:56:42.884Z,8.00
2023-03-06T05:57:41.872Z,8.00
2023-03-06T05:58:41.852Z,8.00
2023-03-06T05:59:43.217Z,4.00
2023-03-06T06:00:41.863Z,8.00
2023-03-06T06:01:41.900Z,8.00
2023-03-06T06:02:41.813Z,8.00
2023-03-06T06:03:41.826Z,8.00
2023-03-06T06:04:41.764Z,8.00
2023-03-06T06:05:41.976Z,12.00
2023-03-06T06:06:41.756Z,12.00
2023-03-06T06:07:41.649Z,16.00
2023-03-06T06:08:41.718Z,12.00
2023-03-06T06:09:41.592Z,16.00
2023-03-06T06:10:41.708Z,16.00
2023-03-06T06:11:41.610Z,16.00
2023-03-06T06:12:41.644Z,16.00
2023-03-06T06:13:41.553Z,16.00
2023-03-06T06:14:41.558Z,20.00
2023-03-06T06:15:41.553Z,20.00
2023-03-06T06:16:41.566Z,20.00
2023-03-06T06:17:41.555Z,20.00
2023-03-06T06:18:41.668Z,24.00
2023-03-06T06:19:41.485Z,24.00
2023-03-06T06:20:41.622Z,28.00
2023-03-06T06:21:41.449Z,28.00
2023-03-06T06:22:41.536Z,32.00
2023-03-06T06:23:41.443Z,32.00
2023-03-06T06:24:41.530Z,36.00
2023-03-06T06:25:41.549Z,40.00
2023-03-06T06:26:41.377Z,48.00
2023-03-06T06:27:41.622Z,48.00
2023-03-06T06:28:41.337Z,52.00
2023-03-06T06:29:41.880Z,60.00
2023-03-06T06:30:41.487Z,64.00
2023-03-06T06:31:41.680Z,68.00
2023-03-06T06:32:41.970Z,72.00
2023-03-06T06:33:41.378Z,76.00
2023-03-06T06:34:41.383Z,76.00
2023-03-06T06:35:41.334Z,84.00
2023-03-06T06:36:41.401Z,88.00
2023-03-06T06:37:41.244Z,96.00
2023-03-06T06:38:41.452Z,100.00
2023-03-06T06:39:41.211Z,100.00
2023-03-06T06:40:41.238Z,96.00
2023-03-06T06:41:57.253Z,64.00
2023-03-06T06:42:41.169Z,96.00
2023-03-06T06:43:41.321Z,88.00
2023-03-06T06:44:41.116Z,84.00
2023-03-06T06:45:41.266Z,76.00
2023-03-06T06:47:41.329Z,72.00
2023-03-06T06:48:41.121Z,72.00
2023-03-06T06:49:41.318Z,76.00
2023-03-06T06:50:41.055Z,80.00
2023-03-06T06:51:41.095Z,84.00
2023-03-06T06:52:41.043Z,84.00
2023-03-06T06:53:41.238Z,84.00
2023-03-06T06:54:41.198Z,88.00
2023-03-06T06:55:41.150Z,92.00
2023-03-06T06:56:41.138Z,96.00
2023-03-06T06:57:41.004Z,108.00
2023-03-06T06:58:41.079Z,120.00
2023-03-06T06:59:41.029Z,128.00
2023-03-06T07:00:41.091Z,140.00
2023-03-06T07:01:40.950Z,156.00
2023-03-06T07:02:41.086Z,164.00
2023-03-06T07:03:40.955Z,176.00
2023-03-06T07:04:49.296Z,204.00
2023-03-06T07:05:40.942Z,224.00
2023-03-06T07:06:41.008Z,220.00
2023-03-06T07:07:40.924Z,212.00
2023-03-06T07:08:40.911Z,204.00
2023-03-06T07:09:40.862Z,208.00
2023-03-06T07:10:40.921Z,216.00
2023-03-06T07:11:40.864Z,224.00
2023-03-06T07:12:40.931Z,248.00
2023-03-06T07:13:40.838Z,260.00
2023-03-06T07:14:40.963Z,256.00
2023-03-06T07:15:40.784Z,248.00
2023-03-06T07:16:40.784Z,248.00
2023-03-06T07:17:40.770Z,252.00
2023-03-06T07:18:40.779Z,244.00
2023-03-06T07:19:40.758Z,236.00
2023-03-06T07:20:40.815Z,224.00
2023-03-06T07:21:40.734Z,228.00
2023-03-06T07:22:50.320Z,252.00
2023-03-06T07:23:40.657Z,268.00
2023-03-06T07:24:40.728Z,280.00
2023-03-06T07:25:40.641Z,280.00
2023-03-06T07:26:40.740Z,300.00
2023-03-06T07:27:40.639Z,324.00
2023-03-06T07:28:52.092Z,360.00
2023-03-06T07:29:40.563Z,404.00
2023-03-06T07:30:40.794Z,432.00
2023-03-06T07:31:40.579Z,468.00
2023-03-06T07:32:40.859Z,500.00
2023-03-06T07:33:40.849Z,504.00
2023-03-06T07:34:40.690Z,508.00
2023-03-06T07:35:40.813Z,520.00
2023-03-06T07:36:40.949Z,520.00
2023-03-06T07:37:41.188Z,532.00
2023-03-06T07:38:40.932Z,564.00
2023-03-06T07:39:40.848Z,572.00
2023-03-06T07:40:40.957Z,584.00
2023-03-06T07:41:40.636Z,584.00
2023-03-06T07:42:40.623Z,612.00
2023-03-06T07:43:40.432Z,624.00
2023-03-06T07:44:40.638Z,644.00
2023-03-06T07:45:40.365Z,716.00
2023-03-06T07:46:40.655Z,752.00
2023-03-06T07:47:40.377Z,792.00
2023-03-06T07:48:40.393Z,896.00
2023-03-06T07:49:40.320Z,1004.00
2023-03-06T07:50:40.521Z,1076.00
2023-03-06T07:51:40.318Z,1212.00
2023-03-06T07:52:40.374Z,1172.00
2023-03-06T07:53:40.435Z,1076.00
2023-03-06T07:54:40.295Z,1032.00
2023-03-06T07:55:40.321Z,1104.00
2023-03-06T07:56:40.329Z,1064.00
2023-03-06T07:57:40.342Z,1028.00
2023-03-06T07:58:40.243Z,1044.00
2023-03-06T07:59:40.260Z,1056.00
2023-03-06T08:00:40.324Z,1060.00
2023-03-06T08:01:40.399Z,1116.00
2023-03-06T08:02:40.243Z,1124.00
2023-03-06T08:03:40.314Z,1140.00
2023-03-06T08:04:40.135Z,1176.00
2023-03-06T08:05:40.311Z,1216.00
2023-03-06T08:06:40.178Z,1312.00
2023-03-06T08:07:40.198Z,1348.00
2023-03-06T08:08:40.112Z,1280.00
2023-03-06T08:09:40.117Z,1216.00
2023-03-06T08:10:40.062Z,1188.00
2023-03-06T08:11:40.172Z,1180.00
2023-03-06T08:12:40.039Z,1152.00
2023-03-06T08:13:40.040Z,1200.00
2023-03-06T08:14:40.048Z,1224.00
2023-03-06T08:15:40.075Z,1196.00
2023-03-06T08:16:40.071Z,1184.00
2023-03-06T08:17:40.056Z,1136.00
2023-03-06T08:18:40.092Z,1044.00
2023-03-06T08:19:40.091Z,1004.00
2023-03-06T08:20:39.940Z,984.00
2023-03-06T08:21:40.028Z,952.00
2023-03-06T08:22:39.916Z,908.00
2023-03-06T08:23:39.935Z,920.00
2023-03-06T08:24:40.034Z,916.00
2023-03-06T08:25:40.175Z,912.00
2023-03-06T08:26:40.034Z,920.00
2023-03-06T08:27:39.860Z,908.00
2023-03-06T08:28:39.867Z,900.00
2023-03-06T08:29:39.922Z,880.00
2023-03-06T08:30:39.828Z,860.00
2023-03-06T08:31:40.052Z,864.00
2023-03-06T08:32:39.945Z,880.00
2023-03-06T08:33:40.031Z,908.00
2023-03-06T08:34:39.779Z,952.00
2023-03-06T08:35:39.841Z,980.00
2023-03-06T08:36:39.767Z,972.00
2023-03-06T08:37:39.942Z,940.00
2023-03-06T08:38:39.891Z,920.00
2023-03-06T08:39:45.801Z,904.00
2023-03-06T08:40:39.739Z,876.00
2023-03-06T08:41:39.676Z,872.00
2023-03-06T08:42:39.760Z,852.00
2023-03-06T08:43:39.710Z,844.00
2023-03-06T08:44:39.853Z,844.00
2023-03-06T08:45:39.779Z,832.00
2023-03-06T08:46:39.621Z,836.00
2023-03-06T08:47:39.716Z,844.00
2023-03-06T08:48:39.627Z,844.00
2023-03-06T08:49:39.941Z,864.00
2023-03-06T08:50:39.714Z,920.00
2023-03-06T08:51:40.247Z,1000.00
2023-03-06T08:52:39.779Z,1136.00
2023-03-06T08:53:43.561Z,1268.00
2023-03-06T08:54:39.985Z,1388.00
2023-03-06T08:55:40.066Z,1440.00
2023-03-06T08:56:40.017Z,1432.00
2023-03-06T08:57:39.548Z,1324.00
2023-03-06T08:58:39.490Z,1240.00
2023-03-06T08:59:39.576Z,1176.00
2023-03-06T09:00:39.616Z,1136.00
2023-03-06T09:01:39.651Z,1104.00
2023-03-06T09:02:39.595Z,1072.00
2023-03-06T09:03:39.383Z,1068.00
2023-03-06T09:04:39.576Z,1048.00
2023-03-06T09:05:39.560Z,1040.00
2023-03-06T09:06:39.477Z,1028.00
2023-03-06T09:07:39.522Z,1000.00
2023-03-06T09:08:39.347Z,1000.00
2023-03-06T09:09:39.527Z,1036.00
2023-03-06T09:10:39.467Z,1032.00
2023-03-06T09:11:39.329Z,1020.00
2023-03-06T09:12:49.885Z,1008.00
2023-03-06T09:13:39.260Z,996.00
2023-03-06T09:14:39.608Z,980.00
2023-03-06T09:15:39.292Z,976.00
2023-03-06T09:16:39.387Z,980.00
2023-03-06T09:17:39.295Z,968.00
2023-03-06T09:18:39.300Z,968.00
2023-03-06T09:19:39.158Z,956.00
2023-03-06T09:20:39.409Z,948.00
2023-03-06T09:21:39.365Z,936.00
2023-03-06T09:22:39.636Z,940.00
2023-03-06T09:23:39.366Z,960.00
2023-03-06T09:24:39.443Z,956.00
2023-03-06T09:25:39.492Z,932.00
2023-03-06T09:26:46.228Z,932.00
2023-03-06T09:27:39.177Z,960.00
2023-03-06T09:28:39.345Z,996.00
2023-03-06T09:29:39.140Z,992.00
2023-03-06T09:30:39.201Z,996.00
2023-03-06T09:31:39.346Z,1008.00
2023-03-06T09:32:39.690Z,1020.00
2023-03-06T09:33:39.623Z,1016.00
2023-03-06T09:34:39.347Z,992.00
2023-03-06T09:35:39.468Z,988.00
2023-03-06T09:36:55.051Z,972.00
2023-03-06T09:37:39.431Z,952.00
2023-03-06T09:38:39.719Z,948.00
2023-03-06T09:39:39.782Z,912.00
2023-03-06T09:40:39.403Z,868.00
2023-03-06T09:41:39.411Z,836.00
2023-03-06T09:42:39.399Z,816.00
2023-03-06T09:43:38.955Z,848.00
2023-03-06T09:44:38.978Z,876.00
2023-03-06T09:45:39.135Z,888.00
2023-03-06T09:46:38.944Z,924.00
2023-03-06T09:47:39.064Z,988.00
2023-03-06T09:48:38.886Z,1068.00
2023-03-06T09:49:38.933Z,1128.00
2023-03-06T09:50:38.884Z,1168.00
2023-03-06T09:51:39.178Z,1224.00
2023-03-06T09:52:38.986Z,1176.00
2023-03-06T09:53:38.962Z,1160.00
2023-03-06T09:54:38.756Z,1184.00
2023-03-06T09:55:38.804Z,1172.00
2023-03-06T09:56:38.730Z,1312.00
2023-03-06T09:57:39.169Z,1560.00
2023-03-06T09:58:38.963Z,1644.00
2023-03-06T09:59:38.946Z,1720.00
2023-03-06T10:00:38.946Z,1700.00
2023-03-06T10:01:38.786Z,1548.00
2023-03-06T10:02:39.242Z,1432.00
2023-03-06T10:03:39.243Z,1492.00
2023-03-06T10:04:38.702Z,1652.00
2023-03-06T10:05:38.799Z,1868.00
2023-03-06T10:06:38.919Z,2172.00
2023-03-06T10:07:38.809Z,2680.00
2023-03-06T10:08:38.773Z,3412.00
2023-03-06T10:09:38.704Z,4324.00
2023-03-06T10:10:38.944Z,5632.00
2023-03-06T10:11:38.846Z,7504.00
2023-03-06T10:12:38.958Z,12328.00
2023-03-06T10:13:38.848Z,31904.00
2023-03-06T10:14:38.997Z,37440.00
2023-03-06T10:15:38.749Z,39872.00
2023-03-06T10:16:38.640Z,40608.00
2023-03-06T10:17:38.603Z,54752.00
2023-03-06T10:18:38.946Z,46976.00
2023-03-06T10:19:38.588Z,35488.00
2023-03-06T10:20:38.423Z,43680.00
2023-03-06T10:21:38.621Z,40576.00
2023-03-06T10:22:38.454Z,25280.00
2023-03-06T10:23:38.355Z,16896.00
2023-03-06T10:24:38.411Z,17152.00
2023-03-06T10:25:38.359Z,11700.00
2023-03-06T10:26:38.525Z,24544.00
2023-03-06T10:27:38.326Z,14300.00
2023-03-06T10:28:38.388Z,16960.00
2023-03-06T10:29:39.193Z,12404.00
2023-03-06T10:30:38.360Z,7748.00
2023-03-06T10:31:38.243Z,19232.00
2023-03-06T10:32:48.351Z,18656.00
2023-03-06T10:33:38.275Z,18464.00
2023-03-06T10:34:38.402Z,17824.00
2023-03-06T10:35:38.483Z,19648.00
2023-03-06T10:36:38.631Z,17600.00
2023-03-06T10:37:38.208Z,6660.00
2023-03-06T10:38:38.535Z,3680.00
2023-03-06T10:39:38.375Z,2688.00
2023-03-06T10:40:38.316Z,2992.00
2023-03-06T10:41:38.373Z,3736.00
2023-03-06T10:42:38.372Z,3276.00
2023-03-06T10:43:38.132Z,3052.00
2023-03-06T10:44:38.407Z,2156.00
2023-03-06T10:45:48.878Z,2512.00
2023-03-06T10:46:38.342Z,2652.00
2023-03-06T10:47:38.631Z,2900.00
2023-03-06T10:48:40.815Z,3692.00
2023-03-06T10:49:38.172Z,4288.00
2023-03-06T10:50:38.075Z,3228.00
2023-03-06T10:51:38.220Z,2532.00
2023-03-06T10:52:38.035Z,2332.00
2023-03-06T10:53:38.203Z,2312.00
2023-03-06T10:54:37.980Z,2372.00
2023-03-06T10:55:38.012Z,2156.00
2023-03-06T10:56:37.994Z,2228.00
2023-03-06T10:57:38.062Z,2724.00
2023-03-06T10:58:37.956Z,3304.00
2023-03-06T10:59:38.070Z,3000.00
2023-03-06T11:00:37.916Z,2840.00
2023-03-06T11:01:38.114Z,2596.00
2023-03-06T11:02:37.895Z,2564.00
2023-03-06T11:03:38.009Z,2236.00
2023-03-06T11:04:37.893Z,1896.00
2023-03-06T11:05:38.097Z,1816.00
2023-03-06T11:06:38.009Z,1784.00
2023-03-06T11:07:38.078Z,1940.00
2023-03-06T11:08:37.925Z,2600.00
2023-03-06T11:09:37.798Z,3048.00
2023-03-06T11:10:37.777Z,3136.00
2023-03-06T11:11:38.252Z,2832.00
2023-03-06T11:12:37.806Z,2304.00
2023-03-06T11:13:37.849Z,1812.00
2023-03-06T11:14:37.752Z,1740.00
2023-03-06T11:15:37.840Z,1708.00
2023-03-06T11:16:37.805Z,1504.00
2023-03-06T11:17:37.872Z,1516.00
2023-03-06T11:18:37.713Z,1512.00
2023-03-06T11:19:37.663Z,1400.00
2023-03-06T11:20:50.427Z,1404.00
2023-03-06T11:21:37.617Z,1384.00
2023-03-06T11:22:37.830Z,1364.00
2023-03-06T11:23:37.679Z,1436.00
2023-03-06T11:24:38.029Z,1516.00
2023-03-06T11:25:37.824Z,1820.00
2023-03-06T11:26:37.633Z,2468.00
2023-03-06T11:27:37.722Z,2664.00
2023-03-06T11:28:37.794Z,3120.00
2023-03-06T11:29:38.954Z,3284.00
2023-03-06T11:30:38.337Z,3496.00
2023-03-06T11:31:37.676Z,2716.00
2023-03-06T11:32:37.624Z,1984.00
2023-03-06T11:33:37.481Z,1764.00
2023-03-06T11:34:37.721Z,1876.00
2023-03-06T11:35:37.474Z,2224.00
2023-03-06T11:36:37.471Z,2200.00
2023-03-06T11:37:37.471Z,2128.00
2023-03-06T11:38:37.406Z,1960.00
2023-03-06T11:39:37.496Z,1940.00
2023-03-06T11:40:37.425Z,1960.00
2023-03-06T11:41:37.363Z,2032.00
2023-03-06T11:42:37.419Z,2096.00
2023-03-06T11:43:37.356Z,2116.00
2023-03-06T11:44:37.356Z,2196.00
2023-03-06T11:45:37.409Z,2252.00
2023-03-06T11:46:37.427Z,2296.00
2023-03-06T11:47:37.307Z,2352.00
2023-03-06T11:48:37.336Z,2384.00
2023-03-06T11:49:37.291Z,2396.00
2023-03-06T11:50:37.248Z,2440.00
2023-03-06T11:51:37.244Z,2452.00
2023-03-06T11:52:37.325Z,2424.00
2023-03-06T11:53:37.279Z,2420.00
2023-03-06T11:54:37.292Z,2400.00
2023-03-06T11:55:37.187Z,2348.00
2023-03-06T11:56:37.343Z,2264.00
2023-03-06T11:57:37.199Z,2188.00
2023-03-06T11:58:37.262Z,2140.00
2023-03-06T11:59:37.171Z,2120.00
2023-03-06T12:00:37.235Z,2188.00
2023-03-06T12:01:37.177Z,2280.00
2023-03-06T12:02:37.107Z,2300.00
2023-03-06T12:03:37.189Z,2316.00
2023-03-06T12:04:37.205Z,2392.00
2023-03-06T12:05:37.244Z,2544.00
2023-03-06T12:06:37.143Z,2588.00
2023-03-06T12:07:37.056Z,2716.00
2023-03-06T12:08:37.217Z,2848.00
2023-03-06T12:09:37.024Z,2744.00
2023-03-06T12:10:37.087Z,2644.00
2023-03-06T12:11:37.368Z,2624.00
2023-03-06T12:12:37.193Z,2740.00
2023-03-06T12:13:37.117Z,2876.00
2023-03-06T12:14:37.136Z,2852.00
2023-03-06T12:15:36.966Z,2812.00
2023-03-06T12:16:36.982Z,2652.00
2023-03-06T12:17:36.976Z,2472.00
2023-03-06T12:18:36.988Z,2620.00
2023-03-06T12:19:36.919Z,2744.00
2023-03-06T12:20:36.974Z,2916.00
2023-03-06T12:21:36.925Z,3336.00
2023-03-06T12:22:37.038Z,3988.00
2023-03-06T12:23:36.862Z,4548.00
2023-03-06T12:24:37.107Z,5684.00
2023-03-06T12:25:36.869Z,6252.00
2023-03-06T12:26:36.980Z,6404.00
2023-03-06T12:27:36.930Z,6140.00
2023-03-06T12:28:36.884Z,6248.00
2023-03-06T12:29:36.844Z,6300.00
2023-03-06T12:30:36.716Z,6160.00
2023-03-06T12:31:36.872Z,5648.00
2023-03-06T12:32:36.796Z,5344.00
2023-03-06T12:33:36.810Z,4948.00
2023-03-06T12:34:36.661Z,4736.00
2023-03-06T12:35:36.826Z,4432.00
2023-03-06T12:36:36.670Z,4200.00
2023-03-06T12:37:36.806Z,4056.00
2023-03-06T12:38:36.638Z,4012.00
2023-03-06T12:39:36.860Z,3568.00
2023-03-06T12:40:36.584Z,3308.00
2023-03-06T12:41:36.854Z,3332.00
2023-03-06T12:42:36.616Z,3296.00
2023-03-06T12:43:38.943Z,3348.00
2023-03-06T12:44:36.629Z,3436.00
2023-03-06T12:45:37.634Z,3488.00
2023-03-06T12:46:36.529Z,3476.00